Time;durP1;ratioP1;P1;durP2;ratioP2;P2;SDS_P1;SDS_P2;PMS_P1;PMS_P2;Temp;Humidity;BMP_temperature;BMP_pressure;BME280_temperature;BME280_humidity;BME280_pressure;Samples;Min_cycle;Max_cycle;Signal;HPM_P1;HPM_P2
2022/11/21 00:01:21;;;;;;;;;;;;;;;19.32;65.39;99810.44;7403568;19;1849;-64
2022/11/21 00:03:52;;;;;;;;;;;;;;;19.30;64.99;99793.69;7405268;19;1363;-63
2022/11/21 00:06:22;;;;;;;;;;;;;;;19.32;65.21;99801.53;7405604;19;1504;-72
2022/11/21 00:08:50;;;;;;;;;;;;;;;19.31;65.10;99781.94;7404586;19;1636;-72
2022/11/21 00:11:19;;;;;;;;;;;;;;;19.32;64.47;99778.28;7405754;19;1576;-63
2022/11/21 00:13:47;;;;;;;;;;;;;;;19.34;64.81;99778.09;7404174;19;1052;-63
2022/11/21 00:16:17;;;;;;;;;;;;;;;19.32;64.57;99778.28;7405049;19;1682;-63
2022/11/21 00:18:45;;;;;;;;;;;;;;;19.33;64.67;99766.53;7404987;19;1683;-72
2022/11/21 00:21:17;;;;;;;;;;;;;;;19.34;64.85;99751.28;7401826;19;1844;-72
2022/11/21 00:23:46;;;;;;;;;;;;;;;19.33;64.39;99753.13;7403217;19;1532;-63
2022/11/21 00:26:15;;;;;;;;;;;;;;;19.27;64.74;99748.41;7405288;19;1138;-72
2022/11/21 00:28:43;;;;;;;;;;;;;;;19.77;63.86;99754.78;7405568;19;1334;-72
2022/11/21 00:31:19;;;;;;;;;;;;;;;20.28;62.50;99734.00;7404231;19;1382;-72
2022/11/21 00:33:49;;;;;;;;;;;;;;;21.25;59.72;99737.47;7404126;19;1573;-71
2022/11/21 00:36:20;;;;;;;;;;;;;;;21.73;58.81;99739.25;7401896;19;1698;-63
2022/11/21 00:38:48;;;;;;;;;;;;;;;22.04;57.76;99747.25;7404856;19;1540;-72
2022/11/21 00:41:16;;;;;;;;;;;;;;;22.11;57.58;99733.94;7404640;19;1867;-72
2022/11/21 00:43:45;;;;;;;;;;;;;;;22.13;57.84;99723.81;7403477;19;1391;-63
2022/11/21 00:46:13;;;;;;;;;;;;;;;21.58;59.48;99725.72;7402526;19;1475;-63
2022/11/21 00:48:41;;;;;;;;;;;;;;;20.73;61.47;99721.03;7403510;19;1537;-63
2022/11/21 00:51:10;;;;;;;;;;;;;;;20.27;62.78;99726.94;7399947;19;1752;-63
2022/11/21 00:53:40;;;;;;;;;;;;;;;19.97;63.33;99707.00;7405159;19;1327;-63
2022/11/21 00:56:09;;;;;;;;;;;;;;;19.86;63.80;99713.56;7405345;19;1014;-72
2022/11/21 00:58:37;;;;;;;;;;;;;;;19.80;63.69;99717.75;7405189;19;1361;-72
2022/11/21 01:01:07;;;;;;;;;;;;;;;19.71;64.02;99715.19;7398604;19;1842;-71
2022/11/21 01:03:35;;;;;;;;;;;;;;;19.66;64.00;99704.94;7404193;19;1633;-71
2022/11/21 01:06:05;;;;;;;;;;;;;;;19.65;63.97;99708.63;7403231;19;1637;-72
2022/11/21 01:08:33;;;;;;;;;;;;;;;19.58;63.82;99704.94;7403298;19;1511;-63
2022/11/21 01:11:07;;;;;;;;;;;;;;;19.54;64.33;99692.88;7405033;19;1008;-72
2022/11/21 01:13:36;;;;;;;;;;;;;;;19.56;64.04;99702.41;7405102;19;1687;-63
2022/11/21 01:16:06;;;;;;;;;;;;;;;19.51;63.83;99694.03;7403230;19;1740;-63
2022/11/21 01:18:34;;;;;;;;;;;;;;;19.51;63.99;99704.75;7403527;19;1571;-63
2022/11/21 01:21:02;;;;;;;;;;;;;;;19.47;63.59;99703.41;7403859;19;1362;-63
2022/11/21 01:23:31;;;;;;;;;;;;;;;19.47;63.91;99695.34;7402786;19;1883;-72
2022/11/21 01:26:02;;;;;;;;;;;;;;;19.44;63.66;99693.03;7404888;19;981;-72
2022/11/21 01:28:33;;;;;;;;;;;;;;;19.44;63.30;99709.09;7403290;19;1748;-63
2022/11/21 01:31:05;;;;;;;;;;;;;;;19.49;63.59;99712.13;7402571;19;1685;-63
2022/11/21 01:33:34;;;;;;;;;;;;;;;19.41;63.30;99712.94;7402572;19;1231;-63
2022/11/21 01:36:07;;;;;;;;;;;;;;;19.42;63.22;99717.31;7402401;19;1613;-63
2022/11/21 01:38:36;;;;;;;;;;;;;;;19.36;63.29;99704.56;7401127;19;1452;-63
2022/11/21 01:41:05;;;;;;;;;;;;;;;19.38;63.33;99715.97;7403615;19;1004;-73
2022/11/21 01:43:36;;;;;;;;;;;;;;;19.36;63.57;99707.25;7401899;19;1868;-73
2022/11/21 01:46:06;;;;;;;;;;;;;;;19.35;63.74;99694.81;7407621;19;1642;-63
2022/11/21 01:48:37;;;;;;;;;;;;;;;19.33;63.64;99679.91;7410544;19;1642;-73
2022/11/21 01:51:09;;;;;;;;;;;;;;;19.34;63.62;99663.69;7405901;19;1752;-73
2022/11/21 01:53:38;;;;;;;;;;;;;;;19.33;63.04;99648.59;7410780;19;1534;-63
2022/11/21 01:56:07;;;;;;;;;;;;;;;19.34;63.30;99636.00;7411134;19;992;-63
2022/11/21 01:58:38;;;;;;;;;;;;;;;19.33;63.47;99643.22;7410993;19;1634;-72
2022/11/21 02:01:07;;;;;;;;;;;;;;;19.31;63.38;99636.34;7406107;19;1559;-63
2022/11/21 02:03:37;;;;;;;;;;;;;;;19.32;62.89;99622.78;7407121;19;1833;-73
2022/11/21 02:06:07;;;;;;;;;;;;;;;19.22;62.95;99614.06;7409168;19;1364;-63
2022/11/21 02:08:36;;;;;;;;;;;;;;;19.69;62.83;99613.41;7409522;19;1524;-72
2022/11/21 02:11:11;;;;;;;;;;;;;;;20.19;61.62;99603.47;7411027;19;936;-63
2022/11/21 02:13:42;;;;;;;;;;;;;;;21.01;58.95;99603.19;7410687;19;965;-63
2022/11/21 02:16:10;;;;;;;;;;;;;;;21.49;57.99;99571.63;7408716;19;1667;-63
2022/11/21 02:18:39;;;;;;;;;;;;;;;21.79;57.39;99569.84;7408165;19;1470;-63
2022/11/21 02:21:12;;;;;;;;;;;;;;;21.92;56.99;99584.50;7405941;19;1639;-63
2022/11/21 02:23:45;;;;;;;;;;;;;;;21.92;57.43;99568.38;7405455;19;1848;-63
2022/11/21 02:26:16;;;;;;;;;;;;;;;21.42;58.52;99576.00;7409574;19;1500;-63
2022/11/21 02:28:47;;;;;;;;;;;;;;;20.60;60.51;99590.78;7410289;19;1265;-73
2022/11/21 02:31:15;;;;;;;;;;;;;;;20.17;61.68;99557.19;7409142;19;1328;-72
2022/11/21 02:33:43;;;;;;;;;;;;;;;19.94;62.51;99567.84;7408693;19;1422;-71
2022/11/21 02:36:26;;;;;;;;;;;;;;;19.80;62.49;99569.38;7408091;19;1454;-72
2022/11/21 02:38:55;;;;;;;;;;;;;;;19.73;62.69;99547.72;7407304;19;1344;-72
2022/11/21 02:41:27;;;;;;;;;;;;;;;19.68;62.49;99525.94;7405711;19;1524;-72
2022/11/21 02:43:59;;;;;;;;;;;;;;;19.64;62.66;99530.78;7404210;19;1844;-72
2022/11/21 02:46:27;;;;;;;;;;;;;;;19.56;62.84;99524.59;7410035;19;998;-72
2022/11/21 02:48:57;;;;;;;;;;;;;;;19.54;62.85;99513.22;7409125;19;1651;-72
2022/11/21 02:51:25;;;;;;;;;;;;;;;19.48;63.15;99494.09;7404520;19;1686;-72
2022/11/21 02:53:53;;;;;;;;;;;;;;;19.48;62.81;99501.31;7408464;19;1622;-73
2022/11/21 02:56:22;;;;;;;;;;;;;;;19.50;62.67;99487.72;7408631;19;1200;-72
2022/11/21 02:58:53;;;;;;;;;;;;;;;19.48;62.67;99512.03;7406344;19;1476;-73
2022/11/21 03:01:21;;;;;;;;;;;;;;;19.50;62.68;99503.81;7398961;19;3145;-84
2022/11/21 03:03:49;;;;;;;;;;;;;;;19.46;62.89;99487.25;7408236;19;1861;-83
2022/11/21 03:06:18;;;;;;;;;;;;;;;19.48;62.47;99483.38;7411757;19;1522;-83
2022/11/21 03:08:46;;;;;;;;;;;;;;;19.47;62.52;99462.94;7409384;19;1022;-82
2022/11/21 03:11:14;;;;;;;;;;;;;;;19.39;62.50;99454.91;7413637;19;1681;-82
2022/11/21 03:13:42;;;;;;;;;;;;;;;19.39;63.10;99464.78;7409959;19;1571;-83
2022/11/21 03:16:13;;;;;;;;;;;;;;;19.42;62.96;99469.84;7410819;19;1349;-82
2022/11/21 03:18:42;;;;;;;;;;;;;;;19.41;63.17;99452.06;7410840;19;1447;-82
2022/11/21 03:21:10;;;;;;;;;;;;;;;19.43;62.99;99456.22;7411299;19;1574;-83
2022/11/21 03:23:38;;;;;;;;;;;;;;;19.46;62.85;99449.72;7409168;19;1817;-83
2022/11/21 03:26:07;;;;;;;;;;;;;;;19.44;62.51;99455.25;7411327;19;1070;-82
2022/11/21 03:28:35;;;;;;;;;;;;;;;19.42;62.53;99470.66;7407816;19;1757;-82
2022/11/21 03:31:04;;;;;;;;;;;;;;;19.42;62.43;99470.66;7407679;19;1598;-83
2022/11/21 03:33:36;;;;;;;;;;;;;;;19.41;63.09;99468.97;7408219;19;1520;-83
2022/11/21 03:36:04;;;;;;;;;;;;;;;19.45;62.95;99489.06;7409456;19;1436;-83
2022/11/21 03:38:33;;;;;;;;;;;;;;;19.42;62.84;99464.47;7410605;19;1038;-83
2022/11/21 03:41:04;;;;;;;;;;;;;;;19.46;62.18;99500.66;7409714;19;975;-82
2022/11/21 03:43:33;;;;;;;;;;;;;;;19.41;62.60;99473.50;7407999;19;1857;-82
2022/11/21 03:46:01;;;;;;;;;;;;;;;19.37;62.70;99470.31;7409865;19;1732;-82
2022/11/21 03:48:29;;;;;;;;;;;;;;;19.34;63.19;99473.34;7408934;19;1520;-82
2022/11/21 03:51:00;;;;;;;;;;;;;;;19.35;63.33;99474.19;7410736;19;1644;-83
2022/11/21 03:53:28;;;;;;;;;;;;;;;19.43;63.04;99495.63;7410587;19;1069;-82
2022/11/21 03:55:57;;;;;;;;;;;;;;;19.39;62.76;99489.75;7409557;19;1622;-82
2022/11/21 03:58:25;;;;;;;;;;;;;;;19.41;63.02;99612.91;7409307;19;1787;-82
2022/11/21 04:00:53;;;;;;;;;;;;;;;19.38;62.56;99598.00;7408720;19;1530;-82
2022/11/21 04:03:21;;;;;;;;;;;;;;;19.34;62.59;99612.75;7406559;19;1827;-82
2022/11/21 04:05:50;;;;;;;;;;;;;;;19.34;62.49;99615.44;7407643;19;1269;-82
2022/11/21 04:08:20;;;;;;;;;;;;;;;19.28;62.79;99618.78;7407842;19;959;-82
2022/11/21 04:10:49;;;;;;;;;;;;;;;19.31;63.03;99594.31;7409096;19;1412;-82
2022/11/21 04:13:17;;;;;;;;;;;;;;;19.27;63.47;99583.06;7407627;19;1500;-84
2022/11/21 04:15:46;;;;;;;;;;;;;;;19.11;64.31;99600.97;7408188;19;1779;-83
2022/11/21 04:18:15;;;;;;;;;;;;;;;18.99;65.26;99582.53;7408780;19;1650;-82
2022/11/21 04:20:43;;;;;;;;;;;;;;;18.94;65.51;99563.44;7409136;19;975;-83
2022/11/21 04:23:12;;;;;;;;;;;;;;;18.90;65.83;99558.56;7407955;19;1858;-83
2022/11/21 04:25:43;;;;;;;;;;;;;;;18.90;65.86;99545.16;7408462;19;1716;-83
2022/11/21 04:28:14;;;;;;;;;;;;;;;19.41;64.78;99530.63;7407089;19;1705;-82
2022/11/21 04:30:42;;;;;;;;;;;;;;;20.48;61.86;99562.63;7408285;19;1386;-83
2022/11/21 04:33:11;;;;;;;;;;;;;;;20.99;60.48;99568.44;7406464;19;1447;-83
2022/11/21 04:35:39;;;;;;;;;;;;;;;20.93;61.11;99518.09;7403646;19;1544;-82
2022/11/21 04:38:07;;;;;;;;;;;;;;;20.75;62.95;99464.63;7406336;19;1692;-84
2022/11/21 04:40:36;;;;;;;;;;;;;;;20.62;65.11;99449.09;7406320;19;1688;-82
2022/11/21 04:43:07;;;;;;;;;;;;;;;20.48;65.05;99457.88;7406153;19;1855;-82
2022/11/21 04:45:35;;;;;;;;;;;;;;;20.23;67.62;99431.19;7404865;19;1273;-83
2022/11/21 04:48:04;;;;;;;;;;;;;;;19.92;67.65;99441.06;7403875;19;1369;-82
2022/11/21 04:50:32;;;;;;;;;;;;;;;19.62;68.77;99447.00;7403592;19;1493;-82
2022/11/21 04:53:00;;;;;;;;;;;;;;;19.42;68.96;99438.50;7404571;19;1536;-84
2022/11/21 04:55:30;;;;;;;;;;;;;;;19.29;69.21;99446.22;7403226;19;1537;-82
2022/11/21 04:58:00;;;;;;;;;;;;;;;19.23;69.24;99438.84;7401589;19;1489;-83
2022/11/21 05:00:31;;;;;;;;;;;;;;;19.18;70.18;99422.44;7402543;19;1413;-83
2022/11/21 05:03:03;;;;;;;;;;;;;;;19.28;69.35;99447.22;7401888;19;1861;-83
2022/11/21 05:05:31;;;;;;;;;;;;;;;19.24;69.54;99483.41;7405390;19;964;-82
2022/11/21 05:07:59;;;;;;;;;;;;;;;19.19;69.75;99464.31;7407000;19;1525;-82
2022/11/21 05:10:28;;;;;;;;;;;;;;;19.13;69.91;99457.78;7405636;19;1721;-83
2022/11/21 05:15:43;;;;;;;;;;;;;;;19.08;70.22;99462.81;7406578;19;1449;-82
2022/11/21 05:18:11;;;;;;;;;;;;;;;19.01;70.39;99459.97;7405775;19;1569;-82
2022/11/21 05:20:39;;;;;;;;;;;;;;;19.04;69.96;99450.78;7409857;19;1425;-82
2022/11/21 05:23:08;;;;;;;;;;;;;;;19.12;69.80;99458.78;7413811;19;1841;-82
2022/11/21 05:25:36;;;;;;;;;;;;;;;19.12;70.06;99457.94;7413810;19;1538;-83
2022/11/21 05:28:05;;;;;;;;;;;;;;;19.13;69.85;99470.34;7413892;19;1491;-83
2022/11/21 05:30:33;;;;;;;;;;;;;;;19.24;70.29;99467.34;7412628;19;1680;-83
2022/11/21 05:33:04;;;;;;;;;;;;;;;19.19;70.64;99475.03;7411827;19;1675;-83
2022/11/21 05:35:32;;;;;;;;;;;;;;;19.05;71.82;99455.94;7413719;19;993;-84
2022/11/21 05:38:00;;;;;;;;;;;;;;;19.78;69.49;99485.53;7414075;19;1380;-83
2022/11/21 05:40:28;;;;;;;;;;;;;;;20.20;67.45;99474.47;7411187;19;1583;-84
2022/11/21 05:45:37;;;;;;;;;;;;;;;20.27;68.39;99469.22;7409134;19;1657;-83
2022/11/21 05:48:08;;;;;;;;;;;;;;;20.25;68.54;99460.53;7409517;19;1543;-83
2022/11/21 05:50:37;;;;;;;;;;;;;;;20.05;68.93;99462.78;7407516;19;1079;-83
2022/11/21 05:53:07;;;;;;;;;;;;;;;20.07;69.02;99466.13;7407990;19;1783;-83
2022/11/21 05:55:35;;;;;;;;;;;;;;;20.18;68.90;99481.03;7411427;19;1446;-82
2022/11/21 05:58:04;;;;;;;;;;;;;;;20.50;68.31;99471.97;7413874;19;1647;-83
2022/11/21 06:00:32;;;;;;;;;;;;;;;20.84;66.99;99468.91;7414377;19;1394;-83
2022/11/21 06:05:43;;;;;;;;;;;;;;;20.84;67.12;99466.22;7415300;19;926;-83
2022/11/21 06:08:12;;;;;;;;;;;;;;;20.73;67.18;99463.13;7413009;19;1464;-83
2022/11/21 06:10:40;;;;;;;;;;;;;;;20.68;67.75;99463.66;7412949;19;1754;-83
2022/11/21 06:13:20;;;;;;;;;;;;;;;20.58;67.96;99479.97;7413201;19;1497;-83
2022/11/21 06:15:49;;;;;;;;;;;;;;;20.64;67.56;99487.34;7412839;19;1691;-83
2022/11/21 06:18:17;;;;;;;;;;;;;;;20.58;68.00;99479.97;7413252;19;1379;-83
2022/11/21 06:20:48;;;;;;;;;;;;;;;20.52;68.09;99475.31;7409340;19;1018;-83
2022/11/21 06:23:17;;;;;;;;;;;;;;;20.63;67.82;99491.06;7413171;19;1855;-83
2022/11/21 06:25:45;;;;;;;;;;;;;;;20.90;67.58;99470.06;7408425;19;1670;-83
2022/11/21 06:28:14;;;;;;;;;;;;;;;21.06;66.90;99491.44;7407107;19;1775;-84
2022/11/21 06:30:43;;;;;;;;;;;;;;;21.15;66.74;99483.28;7412943;19;1653;-84
2022/11/21 06:33:12;;;;;;;;;;;;;;;20.96;67.31;99490.84;7407195;19;1598;-84
2022/11/21 06:35:41;;;;;;;;;;;;;;;20.88;67.61;99482.00;7411480;19;1041;-85
2022/11/21 06:38:12;;;;;;;;;;;;;;;20.84;67.49;99492.28;7413948;19;1794;-83
2022/11/21 06:40:40;;;;;;;;;;;;;;;20.88;67.85;99498.13;7409062;19;1788;-84
2022/11/21 06:43:08;;;;;;;;;;;;;;;21.00;67.28;99492.16;7412190;19;1857;-83
2022/11/21 06:45:37;;;;;;;;;;;;;;;20.82;66.80;99494.31;7412936;19;1330;-83
2022/11/21 06:48:05;;;;;;;;;;;;;;;20.82;66.84;99510.41;7412913;19;1423;-83
2022/11/21 06:50:34;;;;;;;;;;;;;;;20.81;66.27;99508.75;7412517;19;976;-83
2022/11/21 06:53:02;;;;;;;;;;;;;;;21.05;65.38;99495.16;7412867;19;1491;-84
2022/11/21 06:55:33;;;;;;;;;;;;;;;21.02;65.69;99498.19;7412632;19;1744;-83
2022/11/21 06:58:02;;;;;;;;;;;;;;;21.06;65.59;99494.09;7411831;19;1703;-85
2022/11/21 07:00:30;;;;;;;;;;;;;;;21.11;65.18;99492.72;7412077;19;1712;-83
2022/11/21 07:03:01;;;;;;;;;;;;;;;21.11;65.43;99495.41;7409656;19;1636;-83
2022/11/21 07:05:30;;;;;;;;;;;;;;;20.97;65.54;99488.97;7408693;19;1057;-83
2022/11/21 07:07:59;;;;;;;;;;;;;;;21.01;65.99;99495.69;7409946;19;1516;-83
2022/11/21 07:10:27;;;;;;;;;;;;;;;20.96;65.95;99490.84;7408856;19;1713;-83
2022/11/21 07:15:41;;;;;;;;;;;;;;;21.00;65.90;99494.84;7411551;19;1700;-84
2022/11/21 07:18:09;;;;;;;;;;;;;;;21.03;65.86;99475.69;7408727;19;1388;-83
2022/11/21 07:20:38;;;;;;;;;;;;;;;21.08;65.82;99482.34;7412975;19;1046;-84
2022/11/21 07:23:06;;;;;;;;;;;;;;;21.08;65.95;99501.19;7412329;19;1792;-84
2022/11/21 07:25:34;;;;;;;;;;;;;;;21.05;65.76;99503.22;7409155;19;1837;-83
2022/11/21 07:28:06;;;;;;;;;;;;;;;21.12;65.67;99499.78;7411770;19;1609;-83
2022/11/21 07:30:34;;;;;;;;;;;;;;;21.09;65.99;99501.00;7411970;19;954;-83
2022/11/21 07:33:04;;;;;;;;;;;;;;;21.09;65.81;99490.25;7412723;19;1816;-84
2022/11/21 07:35:33;;;;;;;;;;;;;;;21.09;65.57;99505.53;7412281;19;1582;-84
2022/11/21 07:38:01;;;;;;;;;;;;;;;21.08;65.61;99487.75;7411019;19;1717;-84
2022/11/21 07:40:32;;;;;;;;;;;;;;;21.05;65.84;99495.16;7411471;19;1573;-84
2022/11/21 07:43:07;;;;;;;;;;;;;;;21.05;66.02;99503.22;7406683;19;1285;-84
2022/11/21 07:45:35;;;;;;;;;;;;;;;21.10;66.16;99508.03;7408098;19;1861;-83
2022/11/21 07:48:04;;;;;;;;;;;;;;;21.14;66.10;99530.03;7407260;19;1709;-83
2022/11/21 07:50:33;;;;;;;;;;;;;;;21.21;65.90;99547.13;7408499;19;1521;-84
2022/11/21 07:53:02;;;;;;;;;;;;;;;21.33;65.75;99555.56;7410369;19;1685;-83
2022/11/21 07:55:31;;;;;;;;;;;;;;;21.31;65.58;99561.16;7409852;19;1570;-84
2022/11/21 07:57:59;;;;;;;;;;;;;;;21.33;65.56;99577.94;7409698;19;1571;-83
2022/11/21 08:00:31;;;;;;;;;;;;;;;21.28;65.91;99590.25;7410792;19;1554;-82
2022/11/21 08:02:59;;;;;;;;;;;;;;;21.31;65.88;99596.09;7406290;19;1441;-82
2022/11/21 08:05:28;;;;;;;;;;;;;;;21.34;65.66;99600.28;7407194;19;1881;-82
2022/11/21 08:07:57;;;;;;;;;;;;;;;21.32;66.09;99613.91;7410442;19;1721;-83
2022/11/21 08:10:25;;;;;;;;;;;;;;;21.23;66.45;99615.81;7407272;19;1759;-84
2022/11/21 08:12:55;;;;;;;;;;;;;;;21.24;66.51;99633.59;7409640;19;1552;-84
2022/11/21 08:15:23;;;;;;;;;;;;;;;21.28;66.28;99623.34;7407992;19;1561;-82
2022/11/21 08:17:54;;;;;;;;;;;;;;;21.32;66.20;99615.75;7408969;19;1812;-84
2022/11/21 08:20:23;;;;;;;;;;;;;;;21.34;66.42;99625.31;7409890;19;968;-83
2022/11/21 08:22:51;;;;;;;;;;;;;;;21.31;66.30;99625.69;7408350;19;1677;-83
2022/11/21 08:25:19;;;;;;;;;;;;;;;21.32;66.31;99630.03;7407216;19;1885;-83
2022/11/21 08:27:47;;;;;;;;;;;;;;;21.36;66.14;99650.16;7407931;19;1563;-83
2022/11/21 08:30:16;;;;;;;;;;;;;;;21.36;66.37;99644.78;7405533;19;1582;-83
2022/11/21 08:32:45;;;;;;;;;;;;;;;21.27;66.46;99637.81;7407669;19;1239;-83
2022/11/21 08:35:16;;;;;;;;;;;;;;;21.24;66.88;99641.69;7407603;19;1589;-83
2022/11/21 08:37:44;;;;;;;;;;;;;;;21.23;66.59;99648.09;7406509;19;1579;-83
2022/11/21 08:40:13;;;;;;;;;;;;;;;21.17;66.97;99642.56;7406577;19;1439;-83
2022/11/21 08:42:41;;;;;;;;;;;;;;;21.26;66.54;99630.75;7407651;19;1324;-83
2022/11/21 08:45:10;;;;;;;;;;;;;;;21.27;66.71;99635.13;7404655;19;1888;-83
2022/11/21 08:47:38;;;;;;;;;;;;;;;21.33;66.31;99636.25;7406423;19;1399;-82
2022/11/21 08:50:07;;;;;;;;;;;;;;;21.30;66.73;99631.25;7404572;19;1644;-82
2022/11/21 08:52:38;;;;;;;;;;;;;;;21.26;66.90;99636.13;7406868;19;1500;-83
2022/11/21 08:55:07;;;;;;;;;;;;;;;21.35;66.47;99648.50;7409972;19;1400;-82
2022/11/21 08:57:39;;;;;;;;;;;;;;;21.30;66.17;99655.44;7414257;19;1448;-81
2022/11/21 09:00:07;;;;;;;;;;;;;;;21.48;66.08;99644.44;7415425;19;1500;-82
2022/11/21 09:02:36;;;;;;;;;;;;;;;21.44;65.96;99677.03;7412923;19;1487;-82
2022/11/21 09:05:04;;;;;;;;;;;;;;;21.34;66.60;99670.19;7414133;19;1867;-81
2022/11/21 09:07:33;;;;;;;;;;;;;;;21.23;66.79;99663.38;7411594;19;1507;-83
2022/11/21 09:10:03;;;;;;;;;;;;;;;21.16;67.23;99657.03;7415037;19;1436;-82
2022/11/21 09:12:32;;;;;;;;;;;;;;;21.20;66.97;99671.78;7414413;19;1423;-82
2022/11/21 09:20:29;;;;;;;;;;;;;;;21.33;66.52;99642.47;7414650;19;1284;-82
2022/11/21 09:22:57;;;;;;;;;;;;;;;21.42;66.12;99679.03;7413971;19;1447;-83
2022/11/21 09:25:28;;;;;;;;;;;;;;;21.35;66.81;99670.03;7412180;19;1857;-82
2022/11/21 09:28:00;;;;;;;;;;;;;;;21.46;66.31;99687.63;7413354;19;1424;-82
2022/11/21 09:30:28;;;;;;;;;;;;;;;21.30;66.56;99688.53;7414373;19;1571;-82
2022/11/21 09:33:00;;;;;;;;;;;;;;;21.36;66.38;99701.28;7412891;19;1589;-82
2022/11/21 09:35:29;;;;;;;;;;;;;;;21.40;66.20;99691.84;7414733;19;1217;-82
2022/11/21 09:37:57;;;;;;;;;;;;;;;21.45;66.40;99681.41;7411466;19;1489;-82
2022/11/21 09:40:28;;;;;;;;;;;;;;;21.40;66.37;99691.84;7409787;19;1577;-82
2022/11/21 09:43:04;;;;;;;;;;;;;;;21.43;66.25;99685.31;7414360;19;1739;-82
2022/11/21 09:45:34;;;;;;;;;;;;;;;21.39;66.30;99692.88;7410331;19;1862;-82
2022/11/21 09:48:05;;;;;;;;;;;;;;;21.33;66.43;99696.25;7413126;19;1389;-82
2022/11/21 09:50:36;;;;;;;;;;;;;;;21.36;66.18;99709.34;7410431;19;1493;-82
2022/11/21 09:53:06;;;;;;;;;;;;;;;21.39;66.69;99698.25;7414260;19;1696;-82
2022/11/21 09:55:43;;;;;;;;;;;;;;;21.31;66.54;99718.94;7411920;19;1677;-82
2022/11/21 09:58:16;;;;;;;;;;;;;;;21.35;66.54;99726.50;7413055;19;1770;-82
2022/11/21 10:00:44;;;;;;;;;;;;;;;21.25;66.06;99731.25;7408815;19;1753;-82
2022/11/21 10:03:15;;;;;;;;;;;;;;;21.31;66.26;99724.31;7410116;19;1736;-83
2022/11/21 10:05:46;;;;;;;;;;;;;;;21.40;66.02;99734.84;7408576;19;1859;-83
2022/11/21 10:08:19;;;;;;;;;;;;;;;21.43;65.95;99726.50;7413574;19;1516;-83
2022/11/21 10:10:55;;;;;;;;;;;;;;;21.43;66.23;99734.56;7411328;19;1516;-83
2022/11/21 10:13:30;;;;;;;;;;;;;;;21.34;65.78;99732.88;7412760;19;1771;-83
2022/11/21 10:16:01;;;;;;;;;;;;;;;21.46;66.01;99754.88;7414028;19;1731;-83
2022/11/21 10:18:48;;;;;;;;;;;;;;;21.43;66.05;99761.44;7410102;19;1416;-83
2022/11/21 10:21:23;;;;;;;;;;;;;;;21.37;65.90;99747.84;7413387;19;1406;-83
2022/11/21 10:24:00;;;;;;;;;;;;;;;21.36;66.35;99732.72;7412402;19;1368;-83
2022/11/21 10:26:35;;;;;;;;;;;;;;;21.42;66.35;99746.28;7410236;19;1810;-82
2022/11/21 10:29:06;;;;;;;;;;;;;;;21.30;66.49;99734.25;7413534;19;1078;-83
2022/11/21 10:31:38;;;;;;;;;;;;;;;21.40;66.16;99740.25;7410528;19;1711;-83
2022/11/21 10:34:11;;;;;;;;;;;;;;;21.37;66.12;99743.28;7412542;19;1523;-83
2022/11/21 10:36:41;;;;;;;;;;;;;;;21.39;66.48;99759.25;7412409;19;1510;-83
2022/11/21 10:39:14;;;;;;;;;;;;;;;21.47;66.37;99753.88;7415684;19;1349;-84
2022/11/21 10:41:49;;;;;;;;;;;;;;;21.50;66.19;99760.75;7412317;19;1422;-83
2022/11/21 10:47:14;;;;;;;;;;;;;;;21.28;65.96;99762.34;7416146;19;1418;-82
2022/11/21 10:49:43;;;;;;;;;;;;;;;21.26;65.53;99746.38;7412714;19;1306;-83
2022/11/21 10:52:14;;;;;;;;;;;;;;;21.41;66.79;99741.94;7415751;19;1422;-84
2022/11/21 10:54:57;;;;;;;;;;;;;;;21.41;65.60;99747.31;7415436;19;1183;-82
2022/11/21 10:57:30;;;;;;;;;;;;;;;21.31;66.04;99757.44;7410345;19;1357;-82
2022/11/21 11:00:01;;;;;;;;;;;;;;;20.88;66.74;99746.19;7411051;19;1727;-83
2022/11/21 11:02:29;;;;;;;;;;;;;;;20.46;68.44;99752.63;7409761;19;1749;-85
2022/11/21 11:05:14;;;;;;;;;;;;;;;20.20;68.81;99764.38;7410451;19;1845;-85
2022/11/21 11:07:42;;;;;;;;;;;;;;;20.08;69.49;99759.53;7410326;19;1504;-84
2022/11/21 11:10:23;;;;;;;;;;;;;;;19.98;69.95;99765.06;7410956;19;1539;-83
2022/11/21 11:15:38;;;;;;;;;;;;;;;19.85;70.06;99786.97;7411728;19;1456;-84
2022/11/21 11:18:07;;;;;;;;;;;;;;;19.80;69.32;99774.06;7408360;19;1676;-84
2022/11/21 11:20:37;;;;;;;;;;;;;;;19.79;69.99;99772.38;7412423;19;1126;-84
2022/11/21 11:23:18;;;;;;;;;;;;;;;19.74;70.22;99787.31;7408531;19;1491;-84
2022/11/21 11:25:50;;;;;;;;;;;;;;;19.70;70.04;99786.75;7410007;19;1821;-84
2022/11/21 11:28:22;;;;;;;;;;;;;;;19.67;70.70;99790.59;7408283;19;1592;-84
2022/11/21 11:30:51;;;;;;;;;;;;;;;19.64;70.29;99792.78;7409872;19;1645;-84
2022/11/21 11:33:30;;;;;;;;;;;;;;;19.61;69.00;99801.97;7411625;19;1541;-83
2022/11/21 11:36:01;;;;;;;;;;;;;;;19.67;69.95;99795.13;7409341;19;1793;-84
2022/11/21 11:38:31;;;;;;;;;;;;;;;19.63;70.25;99804.50;7410574;19;1716;-83
2022/11/21 11:41:02;;;;;;;;;;;;;;;19.63;70.72;99799.13;7411652;19;1022;-84
2022/11/21 11:49:11;;;;;;;;;;;;;;;19.51;70.62;99806.63;7411337;19;1298;-84
2022/11/21 11:51:42;;;;;;;;;;;;;;;19.51;70.14;99822.72;7409299;19;1685;-84
2022/11/21 11:54:12;;;;;;;;;;;;;;;19.51;70.18;99822.72;7409583;19;1548;-84
2022/11/21 11:56:41;;;;;;;;;;;;;;;19.48;70.32;99823.91;7405480;19;1534;-84
2022/11/21 11:59:18;;;;;;;;;;;;;;;19.48;70.59;99807.81;7407984;19;1519;-84
2022/11/21 12:01:50;;;;;;;;;;;;;;;19.42;70.65;99803.09;7408774;19;1575;-85
2022/11/21 12:04:19;;;;;;;;;;;;;;;19.39;70.63;99805.25;7408277;19;1511;-83
2022/11/21 12:06:50;;;;;;;;;;;;;;;19.34;70.72;99811.13;7406182;19;1845;-83
2022/11/21 12:09:26;;;;;;;;;;;;;;;19.35;70.97;99802.06;7408967;19;1384;-84
2022/11/21 12:12:10;;;;;;;;;;;;;;;19.34;70.90;99784.31;7407733;19;1414;-84
2022/11/21 12:17:29;;;;;;;;;;;;;;;19.34;71.05;99810.25;7410789;19;765;-84
2022/11/21 12:19:59;;;;;;;;;;;;;;;19.33;71.11;99796.00;7408123;19;1910;-84
2022/11/21 12:22:27;;;;;;;;;;;;;;;19.33;70.99;99797.88;7408373;19;1481;-83
2022/11/21 12:24:55;;;;;;;;;;;;;;;19.25;71.04;99801.34;7407906;19;1853;-84
2022/11/21 12:27:29;;;;;;;;;;;;;;;19.25;70.91;99790.63;7407085;19;1697;-83
2022/11/21 12:30:08;;;;;;;;;;;;;;;19.24;70.55;99788.97;7407311;19;1670;-84
2022/11/21 12:32:47;;;;;;;;;;;;;;;19.23;71.56;99828.31;7405353;19;1501;-84
2022/11/21 12:35:23;;;;;;;;;;;;;;;19.24;71.18;99799.69;7407952;19;1666;-84
2022/11/21 12:37:57;;;;;;;;;;;;;;;19.27;70.90;99804.72;7408376;19;1310;-84
2022/11/21 12:40:33;;;;;;;;;;;;;;;19.31;70.98;99810.59;7408453;19;1457;-84
2022/11/21 12:43:09;;;;;;;;;;;;;;;19.33;70.95;99809.41;7406730;19;1450;-84
2022/11/21 12:45:41;;;;;;;;;;;;;;;19.28;71.16;99826.00;7407753;19;1846;-84
2022/11/21 12:56:34;;;;;;;;;;;;;;;19.20;71.48;99814.38;7406755;19;1413;-84
2022/11/21 12:59:04;;;;;;;;;;;;;;;19.24;71.01;99815.75;7407422;19;1446;-84
2022/11/21 13:01:37;;;;;;;;;;;;;;;19.28;72.17;99815.28;7405922;19;1714;-83
2022/11/21 13:04:07;;;;;;;;;;;;;;;19.25;71.72;99817.44;7406833;19;1713;-82
2022/11/21 13:06:40;;;;;;;;;;;;;;;19.29;71.88;99829.50;7405267;19;1865;-83
2022/11/21 13:09:09;;;;;;;;;;;;;;;19.35;72.55;99817.31;7405044;19;1400;-82
2022/11/21 13:12:01;;;;;;;;;;;;;;;19.29;72.03;99810.75;7405037;19;1749;-82
2022/11/21 13:14:46;;;;;;;;;;;;;;;19.31;72.61;99815.94;7405682;19;1547;-82
2022/11/21 13:17:35;;;;;;;;;;;;;;;19.34;72.14;99818.28;7404534;19;1420;-83
2022/11/21 13:20:08;;;;;;;;;;;;;;;19.33;73.10;99806.75;7405378;19;1767;-83
2022/11/21 13:22:56;;;;;;;;;;;;;;;19.33;73.08;99817.47;7403781;19;1487;-83
2022/11/21 13:25:37;;;;;;;;;;;;;;;19.37;72.79;99828.72;7406058;19;1851;-84
2022/11/21 13:28:20;;;;;;;;;;;;;;;19.32;73.23;99831.88;7405483;19;1669;-83
2022/11/21 13:30:49;;;;;;;;;;;;;;;19.35;73.75;99842.28;7402505;19;1493;-84
2022/11/21 13:33:46;;;;;;;;;;;;;;;19.43;73.32;99857.56;7335309;19;5987;-84
2022/11/21 13:36:35;;;;;;;;;;;;;;;19.42;73.27;99848.69;7404651;19;1600;-84
2022/11/21 13:39:18;;;;;;;;;;;;;;;19.33;73.45;99841.59;7400433;19;1577;-83
2022/11/21 13:44:42;;;;;;;;;;;;;;;19.18;72.21;99844.03;7413355;19;1311;-83
2022/11/21 13:47:13;;;;;;;;;;;;;;;19.22;72.32;99844.56;7410052;19;1866;-84
2022/11/21 13:49:47;;;;;;;;;;;;;;;19.26;72.42;99844.06;7414860;19;1678;-83
2022/11/21 13:52:26;;;;;;;;;;;;;;;19.25;72.87;99852.28;7413491;19;1601;-85
2022/11/21 13:55:06;;;;;;;;;;;;;;;19.25;73.08;99855.78;7416040;19;1607;-84
2022/11/21 13:57:42;;;;;;;;;;;;;;;19.30;72.96;99854.47;7404212;19;3371;-58